Time;durP1;ratioP1;P1;durP2;ratioP2;P2;SDS_P1;SDS_P2;PMS_P1;PMS_P2;Temp;Humidity;BMP_temperature;BMP_pressure;BME280_temperature;BME280_humidity;BME280_pressure;Samples;Min_cycle;Max_cycle;Signal;HPM_P1;HPM_P2
2021/12/30 00:02:05;;;;;;;69.07;22.08;;;;;;;2.62;100.00;101308.06;4987789;28;20038;-77
2021/12/30 00:04:31;;;;;;;56.23;21.23;;;;;;;2.72;100.00;101307.38;4988435;28;20035;-77
2021/12/30 00:06:56;;;;;;;63.55;21.30;;;;;;;2.65;100.00;101290.25;4995387;28;20297;-78
2021/12/30 00:09:22;;;;;;;66.10;21.13;;;;;;;2.70;100.00;101292.59;4987884;28;20113;-77
2021/12/30 00:11:47;;;;;;;52.88;19.77;;;;;;;2.73;100.00;101298.50;4971635;28;20022;-78
2021/12/30 00:14:14;;;;;;;60.65;19.67;;;;;;;2.75;100.00;101282.59;4987176;28;20501;-77
2021/12/30 00:16:39;;;;;;;;;;;;;;;2.76;100.00;101286.91;4987946;28;20030;-77
2021/12/30 00:19:05;;;;;;;61.55;20.10;;;;;;;2.77;100.00;101283.34;4987855;28;19921;-77
2021/12/30 00:21:30;;;;;;;63.38;20.40;;;;;;;2.78;100.00;101278.91;4988017;28;20042;-78
2021/12/30 00:23:56;;;;;;;53.20;19.15;;;;;;;2.86;100.00;101284.56;4987660;28;20568;-78
2021/12/30 00:26:21;;;;;;;56.27;18.47;;;;;;;2.81;100.00;101281.34;4987495;28;20496;-77
2021/12/30 00:28:47;;;;;;;49.03;18.08;;;;;;;2.82;100.00;101283.91;4987320;28;20270;-77
2021/12/30 00:31:15;;;;;;;55.03;18.70;;;;;;;2.82;100.00;101268.06;4988317;28;20042;-77
2021/12/30 00:33:41;;;;;;;64.65;19.25;;;;;;;2.79;100.00;101246.34;4986962;28;20096;-77
2021/12/30 00:36:08;;;;;;;51.38;18.90;;;;;;;2.93;100.00;101264.75;4987130;28;20044;-78
2021/12/30 00:38:34;;;;;;;53.28;20.05;;;;;;;2.93;100.00;101262.13;4970641;28;20042;-77
2021/12/30 00:41:00;;;;;;;50.83;19.42;;;;;;;2.95;100.00;101254.94;5003650;28;20030;-78
2021/12/30 00:43:25;;;;;;;63.37;19.20;;;;;;;2.94;100.00;101258.50;4987105;28;20033;-78
2021/12/30 00:45:51;;;;;;;59.40;19.80;;;;;;;2.96;100.00;101252.19;4986985;28;20066;-79
2021/12/30 00:48:16;;;;;;;56.65;18.73;;;;;;;2.92;100.00;101245.41;4987457;28;20034;-78
2021/12/30 00:50:43;;;;;;;50.17;18.40;;;;;;;2.98;100.00;101254.75;4986827;28;20031;-77
2021/12/30 00:53:09;;;;;;;51.50;17.48;;;;;;;2.94;100.00;101251.44;4987178;28;20133;-78
2021/12/30 00:55:34;;;;;;;;;;;;;;;2.93;100.00;101241.84;4986538;28;20057;-77
2021/12/30 00:58:00;;;;;;;54.58;17.65;;;;;;;2.94;100.00;101240.06;5002984;28;20335;-78
2021/12/30 01:00:26;;;;;;;62.47;21.15;;;;;;;2.92;100.00;101250.69;5003530;28;20030;-78
2021/12/30 01:02:51;;;;;;;58.03;18.63;;;;;;;2.91;100.00;101246.38;4986852;28;20042;-78
2021/12/30 01:05:17;;;;;;;59.55;18.60;;;;;;;2.92;100.00;101250.69;4986155;28;20061;-78
2021/12/30 01:07:42;;;;;;;71.18;20.95;;;;;;;2.95;100.00;101242.59;5003030;28;20524;-77
2021/12/30 01:10:11;;;;;;;65.35;21.33;;;;;;;2.88;100.00;101229.88;4986361;28;20065;-78
2021/12/30 01:12:36;;;;;;;56.63;19.23;;;;;;;2.93;100.00;101257.69;5002313;28;20030;-77
2021/12/30 01:15:08;;;;;;;58.78;19.02;;;;;;;2.92;100.00;101248.06;5002075;28;20064;-77
2021/12/30 01:18:09;;;;;;;67.10;21.70;;;;;;;2.87;100.00;101215.03;4969905;28;20415;-77
2021/12/30 01:20:34;;;;;;;58.28;18.95;;;;;;;2.98;100.00;101245.97;4983294;28;20038;-77
2021/12/30 01:22:59;;;;;;;81.70;22.27;;;;;;;2.89;100.00;101237.72;4986732;28;20697;-76
2021/12/30 01:25:25;;;;;;;71.77;22.30;;;;;;;2.87;100.00;101234.31;4985014;28;20125;-77
2021/12/30 01:27:50;;;;;;;68.80;21.20;;;;;;;2.89;100.00;101240.34;4985198;28;20070;-77
2021/12/30 01:30:18;;;;;;;63.37;19.87;;;;;;;3.02;100.00;101248.31;4985302;28;20034;-76
2021/12/30 01:32:44;;;;;;;72.03;22.58;;;;;;;2.99;100.00;101237.13;4985454;28;20065;-76
2021/12/30 01:35:12;;;;;;;77.65;23.13;;;;;;;2.95;100.00;101228.56;4984948;28;20065;-77
2021/12/30 01:37:39;;;;;;;63.75;21.92;;;;;;;3.11;100.00;101260.03;4986338;28;20058;-76
2021/12/30 01:40:09;;;;;;;76.18;23.10;;;;;;;3.05;100.00;101239.34;4968860;28;20030;-77
2021/12/30 01:42:35;;;;;;;85.43;23.52;;;;;;;3.00;100.00;101223.84;4985038;28;20042;-77
2021/12/30 01:45:00;;;;;;;99.40;26.87;;;;;;;3.04;100.00;101232.38;4985090;28;20077;-76
2021/12/30 01:47:25;;;;;;;116.10;29.17;;;;;;;3.19;100.00;101236.63;4985378;28;20046;-77
2021/12/30 01:49:53;;;;;;;122.50;31.00;;;;;;;3.29;100.00;101253.53;5001398;28;20535;-77
2021/12/30 01:52:18;;;;;;;143.85;31.38;;;;;;;3.30;100.00;101236.78;5001428;28;20125;-77
2021/12/30 01:54:44;;;;;;;137.52;28.67;;;;;;;3.32;100.00;101226.94;4986310;28;20130;-76
2021/12/30 01:57:09;;;;;;;133.50;30.70;;;;;;;3.35;100.00;101220.63;4988505;28;20041;-76
2021/12/30 01:59:35;;;;;;;125.70;31.05;;;;;;;3.50;100.00;101245.97;4989408;28;20041;-77
2021/12/30 02:02:02;;;;;;;201.13;36.23;;;;;;;3.52;100.00;101232.66;4988205;28;20041;-76
2021/12/30 02:04:27;;;;;;;186.45;38.35;;;;;;;3.58;100.00;101221.66;4987786;28;20041;-76
2021/12/30 02:06:57;;;;;;;223.30;40.10;;;;;;;3.61;100.00;101212.72;4988409;28;20022;-79
2021/12/30 02:09:23;;;;;;;159.48;35.55;;;;;;;3.69;100.00;101223.56;4987861;28;20030;-77
2021/12/30 02:11:49;;;;;;;292.63;46.55;;;;;;;3.66;100.00;101208.78;4989086;28;20061;-76
2021/12/30 02:14:16;;;;;;;178.87;37.30;;;;;;;3.84;100.00;101240.13;5003869;28;20484;-76
2021/12/30 02:16:42;;;;;;;295.63;46.80;;;;;;;3.88;100.00;101221.31;4987727;28;20073;-76
2021/12/30 02:19:07;;;;;;;434.45;57.60;;;;;;;3.96;100.00;101224.28;4985874;28;20835;-77
2021/12/30 02:21:33;;;;;;;287.47;44.77;;;;;;;3.94;100.00;101223.56;4987759;28;20121;-77
2021/12/30 02:23:58;;;;;;;251.23;43.07;;;;;;;4.05;100.00;101233.38;4988132;28;20924;-78
2021/12/30 02:26:25;;;;;;;239.60;44.83;;;;;;;3.99;100.00;101202.09;4989341;28;20046;-76
2021/12/30 02:28:51;;;;;;;222.55;42.00;;;;;;;4.02;100.00;101204.50;4991177;28;20240;-76
2021/12/30 02:31:20;;;;;;;511.73;63.05;;;;;;;3.91;100.00;101184.16;4974703;28;20027;-76
2021/12/30 02:33:46;;;;;;;426.05;56.40;;;;;;;3.98;100.00;101192.47;5006601;28;20045;-76
2021/12/30 02:36:13;;;;;;;201.13;42.22;;;;;;;4.16;100.00;101206.16;4991747;28;20084;-77
2021/12/30 02:38:44;;;;;;;187.68;44.63;;;;;;;4.06;100.00;101179.56;4990574;28;20026;-76
2021/12/30 02:41:14;;;;;;;236.23;45.17;;;;;;;4.01;100.00;101179.06;5006539;28;20034;-77
2021/12/30 02:43:39;;;;;;;209.52;42.65;;;;;;;3.92;100.00;101169.13;4973704;28;20030;-75
2021/12/30 02:46:05;;;;;;;587.17;73.88;;;;;;;3.82;100.00;101166.31;4990516;28;20503;-78
2021/12/30 02:48:33;;;;;;;230.13;43.92;;;;;;;3.87;100.00;101209.09;4990335;28;20544;-76
2021/12/30 02:51:02;;;;;;;359.55;50.55;;;;;;;3.92;100.00;101212.25;4989506;28;20080;-76
2021/12/30 02:53:28;;;;;;;282.00;49.67;;;;;;;3.96;100.00;101234.88;4989563;28;20066;-80
2021/12/30 02:55:54;;;;;;;322.63;51.97;;;;;;;3.96;100.00;101234.88;4981326;28;20108;-76
2021/12/30 02:58:25;;;;;;;207.85;45.22;;;;;;;4.01;100.00;101232.72;4989683;28;20503;-75
2021/12/30 03:01:07;;;;;;;364.30;56.63;;;;;;;4.11;100.00;101246.13;4996312;28;20038;-76
2021/12/30 03:03:33;;;;;;;225.45;48.72;;;;;;;4.30;100.00;101272.09;4989644;28;20822;-79
2021/12/30 03:06:02;;;;;;;217.82;48.63;;;;;;;4.36;100.00;101254.97;4990164;28;20057;-77
2021/12/30 03:08:29;;;;;;;187.70;43.45;;;;;;;4.33;100.00;101252.53;4989101;28;20092;-79
2021/12/30 03:10:54;;;;;;;219.65;48.20;;;;;;;4.33;100.00;101239.31;5005503;28;20046;-75
2021/12/30 03:13:29;;;;;;;209.27;45.92;;;;;;;4.39;100.00;101249.47;4989003;28;20023;-76
2021/12/30 03:15:56;;;;;;;185.32;44.28;;;;;;;4.35;100.00;101234.75;4988706;28;20053;-77
2021/12/30 03:18:21;;;;;;;;;;;;;;;4.31;100.00;101228.00;5005463;28;20037;-76
2021/12/30 03:20:46;;;;;;;174.38;42.55;;;;;;;4.34;100.00;101231.28;4989228;28;19917;-76
2021/12/30 03:23:12;;;;;;;188.13;44.13;;;;;;;4.35;100.00;101237.41;4989462;28;20026;-76
2021/12/30 03:25:37;;;;;;;233.20;47.00;;;;;;;4.48;100.00;101254.09;4989328;28;20484;-78
2021/12/30 03:28:03;;;;;;;161.17;41.93;;;;;;;4.53;100.00;101259.03;4989337;28;20034;-78
2021/12/30 03:30:28;;;;;;;162.57;42.03;;;;;;;4.53;100.00;101256.41;4981173;28;20042;-76
2021/12/30 03:32:53;;;;;;;196.20;40.10;;;;;;;4.58;100.00;101238.41;4989434;28;20042;-76
2021/12/30 03:35:19;;;;;;;169.63;39.33;;;;;;;4.64;100.00;101256.47;4988898;28;20030;-76
2021/12/30 03:37:45;;;;;;;167.40;37.87;;;;;;;4.58;100.00;101226.00;4989305;28;20045;-76
2021/12/30 03:40:16;;;;;;;173.55;39.90;;;;;;;4.57;100.00;101219.03;5005953;28;20030;-76
2021/12/30 03:42:42;;;;;;;158.35;37.38;;;;;;;4.58;100.00;101223.38;4973102;28;20034;-76
2021/12/30 03:45:10;;;;;;;144.23;33.78;;;;;;;4.63;100.00;101225.69;4972873;28;20015;-78
2021/12/30 03:47:41;;;;;;;138.07;34.35;;;;;;;4.59;100.00;101216.31;5005350;28;20069;-76
2021/12/30 03:50:12;;;;;;;123.13;30.08;;;;;;;4.72;100.00;101224.16;5004056;28;20045;-76
2021/12/30 03:52:38;;;;;;;126.22;30.35;;;;;;;4.67;100.00;101218.38;4989657;28;20085;-76
2021/12/30 03:55:04;;;;;;;114.30;28.87;;;;;;;4.55;100.00;101218.31;4988017;28;20030;-76
2021/12/30 03:57:29;;;;;;;130.55;30.38;;;;;;;4.61;100.00;101223.16;5004637;28;20047;-77
2021/12/30 03:59:55;;;;;;;105.20;23.27;;;;;;;4.60;100.00;101205.59;4989300;28;20042;-75
2021/12/30 04:02:20;;;;;;;122.93;26.02;;;;;;;4.59;100.00;101206.56;4988052;28;20042;-76
2021/12/30 04:04:45;;;;;;;107.43;26.33;;;;;;;4.48;100.00;101195.09;4988880;28;20038;-77
2021/12/30 04:07:11;;;;;;;113.60;24.50;;;;;;;4.51;100.00;101200.97;4987549;28;20113;-76
2021/12/30 04:09:37;;;;;;;103.47;22.70;;;;;;;4.59;100.00;101211.84;4987342;28;20708;-76
2021/12/30 04:12:03;;;;;;;113.55;23.08;;;;;;;4.51;100.00;101185.09;4988545;28;20057;-76
2021/12/30 04:14:29;;;;;;;107.20;20.48;;;;;;;4.53;100.00;101199.06;5003223;28;20042;-76
2021/12/30 04:16:55;;;;;;;88.55;21.13;;;;;;;4.66;100.00;101217.53;4987156;28;20030;-76
2021/12/30 04:19:20;;;;;;;95.45;22.52;;;;;;;4.65;100.00;101218.47;4978686;28;20704;-76
2021/12/30 04:21:46;;;;;;;88.15;21.02;;;;;;;4.56;100.00;101188.25;4986847;28;20035;-76
2021/12/30 04:24:11;;;;;;;90.55;18.80;;;;;;;4.64;100.00;101191.19;4986325;28;20065;-76
2021/12/30 04:26:37;;;;;;;95.90;20.77;;;;;;;4.62;100.00;101179.88;4986769;28;20803;-76
2021/12/30 04:29:04;;;;;;;95.67;17.10;;;;;;;4.55;100.00;101170.72;4988020;28;20285;-77
2021/12/30 04:31:30;;;;;;;95.15;19.42;;;;;;;4.60;100.00;101162.44;4986435;28;20038;-76
2021/12/30 04:33:56;;;;;;;76.15;18.05;;;;;;;4.56;100.00;101153.88;5001187;28;20787;-77
2021/12/30 04:36:21;;;;;;;87.15;19.08;;;;;;;4.54;100.00;101139.09;5002497;28;20034;-76
2021/12/30 04:38:46;;;;;;;79.27;17.50;;;;;;;4.50;100.00;101149.06;4986577;28;20072;-76
2021/12/30 04:41:13;;;;;;;73.32;16.10;;;;;;;4.58;100.00;101137.91;4994609;28;20038;-76
2021/12/30 04:43:39;;;;;;;71.72;15.35;;;;;;;4.51;100.00;101134.88;4986102;28;20038;-77
2021/12/30 04:46:05;;;;;;;79.93;14.05;;;;;;;4.52;100.00;101133.06;4985880;28;20057;-76
2021/12/30 04:48:30;;;;;;;67.27;14.40;;;;;;;4.52;100.00;101131.28;5002795;28;20049;-77
2021/12/30 04:50:56;;;;;;;69.50;14.47;;;;;;;4.42;100.00;101120.56;4986382;28;20099;-77
2021/12/30 04:53:21;;;;;;;71.03;14.70;;;;;;;4.41;100.00;101105.63;4986478;28;20464;-76
2021/12/30 04:55:47;;;;;;;77.32;14.23;;;;;;;4.40;100.00;101084.56;4985569;28;20921;-76
2021/12/30 04:58:14;;;;;;;77.57;15.68;;;;;;;4.43;100.00;101095.78;4986480;28;20078;-77
2021/12/30 05:00:40;;;;;;;74.88;12.30;;;;;;;4.43;100.00;101093.13;4986934;28;20488;-76
2021/12/30 05:03:15;;;;;;;65.40;16.85;;;;;;;4.40;100.00;101076.66;4987516;28;20029;-77
2021/12/30 05:05:50;;;;;;;61.90;13.50;;;;;;;4.28;100.00;101070.47;4986110;28;20038;-76
2021/12/30 05:08:20;;;;;;;71.60;15.60;;;;;;;4.33;100.00;101078.94;4986340;28;20312;-76
2021/12/30 05:10:47;;;;;;;73.53;14.40;;;;;;;4.25;100.00;101062.78;4986177;28;20085;-77
2021/12/30 05:13:13;;;;;;;58.80;12.05;;;;;;;4.29;100.00;101068.69;4986282;28;20026;-76
2021/12/30 05:15:39;;;;;;;72.88;13.15;;;;;;;4.31;100.00;101093.19;4986007;28;20048;-76
2021/12/30 05:18:07;;;;;;;58.63;12.00;;;;;;;4.30;100.00;101096.81;4994434;28;20066;-77
2021/12/30 05:20:33;;;;;;;58.38;11.88;;;;;;;4.39;100.00;101106.69;4986347;28;20443;-77
2021/12/30 05:22:58;;;;;;;80.40;13.43;;;;;;;4.38;100.00;101102.38;4986374;28;20042;-77
2021/12/30 05:25:24;;;;;;;55.42;13.80;;;;;;;4.36;100.00;101102.50;4985787;28;20479;-76
2021/12/30 05:27:50;;;;;;;75.47;13.02;;;;;;;4.42;100.00;101111.75;4986287;28;20077;-77
2021/12/30 05:30:17;;;;;;;72.85;12.45;;;;;;;4.32;100.00;101110.75;4986076;28;20551;-77
2021/12/30 05:32:43;;;;;;;45.55;9.30;;;;;;;4.32;100.00;101100.19;4986294;28;20066;-78
2021/12/30 05:35:10;;;;;;;47.88;10.48;;;;;;;4.21;100.00;101087.75;4985984;28;20014;-77
2021/12/30 05:37:36;;;;;;;52.80;10.45;;;;;;;4.22;100.00;101085.00;4987427;28;20069;-76
2021/12/30 05:40:04;;;;;;;51.92;11.82;;;;;;;4.12;100.00;101059.34;4986321;28;20054;-77
2021/12/30 05:42:30;;;;;;;55.00;10.75;;;;;;;4.00;100.00;101050.53;4985964;28;20539;-77
2021/12/30 05:44:56;;;;;;;63.28;10.55;;;;;;;4.19;100.00;101069.38;4969653;28;20122;-77
2021/12/30 05:47:21;;;;;;;59.05;11.90;;;;;;;4.22;100.00;101066.50;4986342;28;20044;-77
2021/12/30 05:49:48;;;;;;;51.03;11.30;;;;;;;4.25;100.00;101056.66;4986269;28;20527;-77
2021/12/30 05:52:14;;;;;;;59.38;13.15;;;;;;;4.16;100.00;101048.44;5002830;28;20078;-77
2021/12/30 05:54:42;;;;;;;67.03;11.32;;;;;;;4.15;100.00;101059.97;4985680;28;20066;-76
2021/12/30 05:57:08;;;;;;;58.45;12.15;;;;;;;4.22;100.00;101073.59;5003279;28;20077;-79
2021/12/30 05:59:34;;;;;;;64.57;14.50;;;;;;;4.17;100.00;101073.09;4990595;28;20046;-77
2021/12/30 06:02:00;;;;;;;71.38;13.57;;;;;;;4.16;100.00;101068.75;4990400;28;20038;-77
2021/12/30 06:04:25;;;;;;;61.72;12.20;;;;;;;4.23;100.00;101075.25;4982140;28;20026;-77
2021/12/30 06:06:51;;;;;;;58.10;11.20;;;;;;;4.13;100.00;101064.53;4990568;28;20050;-77
2021/12/30 06:09:17;;;;;;;70.55;13.50;;;;;;;4.29;100.00;101085.41;4990305;28;20054;-77
2021/12/30 06:11:42;;;;;;;58.72;12.60;;;;;;;4.41;100.00;101089.75;4990740;28;20302;-79
2021/12/30 06:14:08;;;;;;;73.32;15.68;;;;;;;4.44;100.00;101081.59;4988799;28;20038;-77
2021/12/30 06:16:33;;;;;;;73.77;15.60;;;;;;;4.45;100.00;101069.25;4989106;28;20042;-77
2021/12/30 06:18:59;;;;;;;68.33;13.30;;;;;;;4.48;100.00;101076.94;5005643;28;20027;-77
2021/12/30 06:21:25;;;;;;;80.72;17.42;;;;;;;4.66;100.00;101093.22;5005526;28;20054;-77
2021/12/30 06:23:50;;;;;;;88.05;20.05;;;;;;;4.57;100.00;101078.88;5005786;28;20073;-77
2021/12/30 06:26:15;;;;;;;77.47;15.97;;;;;;;4.67;100.00;101076.38;4973870;28;20018;-77
2021/12/30 06:28:41;;;;;;;76.77;17.33;;;;;;;4.72;100.00;101082.16;4990028;28;20093;-77
2021/12/30 06:31:06;;;;;;;90.73;20.03;;;;;;;4.76;100.00;101090.72;4989909;28;20058;-76
2021/12/30 06:33:31;;;;;;;92.30;19.83;;;;;;;4.75;100.00;101071.38;4989688;28;20034;-77
2021/12/30 06:35:57;;;;;;;86.77;18.10;;;;;;;4.77;100.00;101069.44;4989885;28;20038;-77
2021/12/30 06:38:22;;;;;;;81.47;18.03;;;;;;;4.74;100.00;101055.59;4990491;28;20038;-78
2021/12/30 06:40:48;;;;;;;90.15;18.95;;;;;;;4.82;100.00;101071.72;4989313;28;20030;-78
2021/12/30 06:43:13;;;;;;;94.07;22.50;;;;;;;4.76;100.00;101061.63;4988299;28;20041;-77
2021/12/30 06:45:38;;;;;;;92.33;23.27;;;;;;;4.73;100.00;101049.47;5004099;28;20719;-76
2021/12/30 06:48:06;;;;;;;85.37;17.83;;;;;;;4.83;100.00;101068.97;4988101;28;20108;-77
2021/12/30 06:50:33;;;;;;;98.78;20.63;;;;;;;4.89;100.00;101087.97;4988416;28;20300;-76
2021/12/30 06:52:58;;;;;;;94.05;20.67;;;;;;;4.90;100.00;101084.38;4990032;28;20030;-77
2021/12/30 06:55:23;;;;;;;77.13;21.30;;;;;;;4.92;100.00;101077.19;4988513;28;20045;-77
2021/12/30 06:57:49;;;;;;;82.17;19.10;;;;;;;4.94;100.00;101077.88;4989213;28;20049;-77
2021/12/30 07:00:14;;;;;;;86.57;21.40;;;;;;;4.97;100.00;101110.25;4989458;28;20031;-77
2021/12/30 07:02:44;;;;;;;99.80;20.80;;;;;;;5.12;100.00;101134.69;4988827;28;20595;-77
2021/12/30 07:05:11;;;;;;;86.13;21.55;;;;;;;5.03;100.00;101130.97;4988258;28;20603;-77
2021/12/30 07:07:36;;;;;;;92.18;24.48;;;;;;;5.20;100.00;101129.66;4987621;28;20515;-78
2021/12/30 07:10:04;;;;;;;84.35;22.25;;;;;;;5.17;100.00;101129.03;5004242;28;20026;-78
2021/12/30 07:12:30;;;;;;;101.53;23.77;;;;;;;5.23;100.00;101132.06;4972981;28;20046;-77
2021/12/30 07:14:57;;;;;;;90.53;22.23;;;;;;;5.25;100.00;101137.25;4988261;28;20037;-76
2021/12/30 07:17:22;;;;;;;70.72;18.77;;;;;;;5.32;100.00;101143.75;5005295;28;20426;-79
2021/12/30 07:19:48;;;;;;;86.35;22.95;;;;;;;5.27;100.00;101162.66;4988595;28;20042;-79
2021/12/30 07:22:13;;;;;;;91.43;22.13;;;;;;;5.28;100.00;101152.88;4988878;28;20192;-77
2021/12/30 07:24:38;;;;;;;97.87;21.13;;;;;;;5.25;100.00;101148.69;4988936;28;20105;-78
2021/12/30 07:27:04;;;;;;;100.43;25.00;;;;;;;5.22;100.00;101158.66;4989308;28;20034;-78
2021/12/30 07:29:29;;;;;;;93.37;22.27;;;;;;;5.13;100.00;101140.81;5005047;28;20030;-77
2021/12/30 07:31:54;;;;;;;93.23;24.37;;;;;;;5.24;100.00;101168.19;4988783;28;20177;-77
2021/12/30 07:34:20;;;;;;;102.93;25.20;;;;;;;5.18;100.00;101138.69;4988508;28;20061;-76
2021/12/30 07:36:45;;;;;;;114.97;26.20;;;;;;;5.29;100.00;101158.06;4988761;28;20033;-77
2021/12/30 07:39:10;;;;;;;112.23;25.07;;;;;;;5.29;100.00;101146.63;4988641;28;20374;-76
2021/12/30 07:41:37;;;;;;;99.27;25.40;;;;;;;5.39;100.00;101168.78;4988676;28;20521;-77
2021/12/30 07:44:02;;;;;;;94.50;23.17;;;;;;;5.32;100.00;101149.06;4987925;28;20030;-78
2021/12/30 07:46:27;;;;;;;105.70;23.83;;;;;;;5.29;100.00;101147.50;4989094;28;20049;-78
2021/12/30 07:48:53;;;;;;;101.07;24.17;;;;;;;5.34;100.00;101148.91;4972746;28;20113;-78
2021/12/30 07:51:18;;;;;;;97.17;23.50;;;;;;;5.40;100.00;101174.94;5005024;28;20400;-78
2021/12/30 07:53:43;;;;;;;108.07;24.70;;;;;;;5.36;100.00;101168.19;4988362;28;20052;-77
2021/12/30 07:56:09;;;;;;;101.80;26.60;;;;;;;5.38;100.00;101180.34;4984128;28;20045;-79
2021/12/30 07:58:35;;;;;;;94.97;24.63;;;;;;;5.46;100.00;101185.06;4992969;28;20038;-78
2021/12/30 08:01:00;;;;;;;92.90;23.15;;;;;;;5.37;100.00;101168.06;4991448;28;20114;-79
2021/12/30 08:03:26;;;;;;;111.90;26.45;;;;;;;5.39;100.00;101176.75;4991693;28;20108;-76
2021/12/30 08:05:52;;;;;;;111.55;26.60;;;;;;;5.49;100.00;101179.50;4991549;28;20034;-79
2021/12/30 08:08:17;;;;;;;106.47;25.98;;;;;;;5.56;100.00;101185.19;5000148;28;20841;-76
2021/12/30 08:10:43;;;;;;;95.90;26.00;;;;;;;5.52;100.00;101166.03;4992368;28;20426;-77
2021/12/30 08:13:08;;;;;;;110.85;25.95;;;;;;;5.59;100.00;101177.00;4992068;28;20040;-78
2021/12/30 08:15:33;;;;;;;94.27;24.43;;;;;;;5.63;100.00;101175.78;4992996;28;20106;-79
2021/12/30 08:17:59;;;;;;;103.67;26.83;;;;;;;5.64;100.00;101161.56;4990476;28;20396;-79
2021/12/30 08:20:24;;;;;;;92.20;26.90;;;;;;;5.66;100.00;101162.31;5008123;28;20049;-77
2021/12/30 08:22:51;;;;;;;97.38;25.05;;;;;;;5.75;100.00;101166.88;4975417;28;20030;-79
2021/12/30 08:25:18;;;;;;;108.18;24.80;;;;;;;5.75;100.00;101161.56;4997906;28;20558;-77
2021/12/30 08:27:44;;;;;;;109.07;26.20;;;;;;;5.80;100.00;101163.88;5000730;28;20065;-78
2021/12/30 08:30:11;;;;;;;;;;;;;;;5.74;100.00;101161.72;4983499;28;20015;-78
2021/12/30 08:32:37;;;;;;;100.18;22.20;;;;;;;5.66;100.00;101135.81;4998890;28;19918;-78
2021/12/30 08:35:04;;;;;;;93.60;23.98;;;;;;;5.75;100.00;101160.75;4997281;28;20084;-79
2021/12/30 08:37:29;;;;;;;;;;;;;;;5.74;100.00;101151.97;4972703;28;20041;-78
2021/12/30 08:39:54;;;;;;;;;;;;;;;5.79;100.00;101151.59;4989307;28;19922;-79
2021/12/30 08:42:25;;;;;;;104.57;25.10;;;;;;;5.76;100.00;101141.22;4988926;28;20379;-79
2021/12/30 08:44:52;;;;;;;105.97;27.05;;;;;;;5.77;100.00;101127.88;5004646;28;20133;-79
2021/12/30 08:47:17;;;;;;;94.18;25.38;;;;;;;5.82;100.00;101123.03;4972946;28;20030;-77
2021/12/30 08:49:46;;;;;;;117.03;27.88;;;;;;;5.76;100.00;101097.03;4988810;28;20046;-80
2021/12/30 08:52:17;;;;;;;115.90;27.88;;;;;;;5.77;100.00;101101.38;4988977;28;20042;-79
2021/12/30 08:54:44;;;;;;;116.25;26.17;;;;;;;5.79;100.00;101109.19;4990226;28;20761;-77
2021/12/30 08:57:10;;;;;;;97.97;25.38;;;;;;;5.77;100.00;101089.94;4990497;28;20384;-78
2021/12/30 08:59:36;;;;;;;88.05;26.75;;;;;;;5.84;100.00;101109.66;4988722;28;20088;-79
2021/12/30 09:02:06;;;;;;;106.13;28.58;;;;;;;5.89;100.00;101096.88;4989243;28;20886;-78
2021/12/30 09:04:32;;;;;;;100.72;25.95;;;;;;;5.95;100.00;101095.56;4988890;28;20467;-77
2021/12/30 09:06:57;;;;;;;116.65;27.83;;;;;;;5.94;100.00;101092.09;4988484;28;20046;-77
2021/12/30 09:09:23;;;;;;;126.13;27.98;;;;;;;5.89;100.00;101075.69;4988093;28;20088;-78
2021/12/30 09:11:48;;;;;;;121.10;28.30;;;;;;;5.92;100.00;101078.94;4988166;28;20030;-80
2021/12/30 09:14:14;;;;;;;119.63;27.92;;;;;;;5.93;100.00;101080.63;4971937;28;20432;-79
2021/12/30 09:16:40;;;;;;;108.82;27.65;;;;;;;5.95;100.00;101067.28;4987792;28;20126;-77
2021/12/30 09:19:06;;;;;;;120.20;27.83;;;;;;;5.97;100.00;101059.19;4988397;28;20029;-80
2021/12/30 09:21:31;;;;;;;123.72;29.67;;;;;;;6.01;100.00;101064.13;4988464;28;20137;-79
2021/12/30 09:23:57;;;;;;;110.07;28.17;;;;;;;5.99;100.00;101058.09;4989480;28;20038;-78
2021/12/30 09:26:22;;;;;;;112.97;28.93;;;;;;;5.99;100.00;101062.56;4988447;28;20022;-76
2021/12/30 09:28:47;;;;;;;116.60;27.97;;;;;;;6.06;100.00;101064.59;4991069;28;20065;-78
2021/12/30 09:31:13;;;;;;;125.90;26.63;;;;;;;6.04;100.00;101049.75;4990331;28;20042;-79
2021/12/30 09:33:38;;;;;;;104.13;25.90;;;;;;;6.05;100.00;101051.47;5007014;28;20038;-78
2021/12/30 09:36:04;;;;;;;116.03;27.77;;;;;;;6.09;100.00;101063.50;5008221;28;20042;-80
2021/12/30 09:38:30;;;;;;;101.30;25.50;;;;;;;6.08;100.00;101061.81;4991794;28;20108;-79
2021/12/30 09:40:55;;;;;;;114.45;24.50;;;;;;;6.20;100.00;101070.56;4992160;28;20030;-79
2021/12/30 09:43:21;;;;;;;115.70;27.17;;;;;;;6.18;100.00;101054.81;4991877;28;20034;-79
2021/12/30 09:45:46;;;;;;;132.48;30.67;;;;;;;6.14;100.00;101045.41;5005560;28;20292;-78
2021/12/30 09:48:14;;;;;;;131.52;32.63;;;;;;;6.21;100.00;101040.44;4991718;28;20526;-76
2021/12/30 09:50:42;;;;;;;121.22;30.67;;;;;;;6.22;100.00;101036.81;4991949;28;20045;-79
2021/12/30 09:53:08;;;;;;;112.80;29.08;;;;;;;6.20;100.00;101031.63;4992153;28;20404;-78
2021/12/30 09:55:34;;;;;;;152.77;30.73;;;;;;;6.22;100.00;101029.69;4992224;28;20030;-79
2021/12/30 09:58:00;;;;;;;120.30;29.13;;;;;;;6.26;100.00;101025.81;5008648;28;20038;-79
2021/12/30 10:00:26;;;;;;;;;;;;;;;6.33;100.00;101042.06;4992742;28;20065;-79
2021/12/30 10:02:52;;;;;;;100.80;25.98;;;;;;;6.41;100.00;101038.78;4992982;28;19959;-76
2021/12/30 10:05:20;;;;;;;120.30;28.37;;;;;;;6.39;100.00;101017.72;4991176;28;20549;-78
2021/12/30 10:07:47;;;;;;;117.50;29.65;;;;;;;6.45;100.00;101021.66;4991968;28;20026;-80
2021/12/30 10:10:34;;;;;;;131.18;29.95;;;;;;;6.45;100.00;101042.84;4991970;28;20069;-77
2021/12/30 10:13:21;;;;;;;116.53;27.52;;;;;;;6.50;100.00;101053.91;4991072;28;20572;-79
2021/12/30 10:15:50;;;;;;;123.00;30.13;;;;;;;6.46;100.00;101049.84;4975016;28;20109;-79
2021/12/30 10:18:18;;;;;;;106.88;26.92;;;;;;;6.51;100.00;101043.19;4991423;28;20038;-79
2021/12/30 10:20:44;;;;;;;150.07;36.17;;;;;;;6.54;100.00;101042.09;4992989;28;20650;-77
2021/12/30 10:23:11;;;;;;;141.05;32.22;;;;;;;6.53;100.00;101040.38;5008961;28;20034;-80
2021/12/30 10:25:40;;;;;;;112.53;28.15;;;;;;;6.63;100.00;101051.09;4994049;28;20113;-79
2021/12/30 10:28:36;;;;;;;104.57;28.52;;;;;;;6.68;100.00;101049.72;4978055;28;20034;-78
2021/12/30 10:31:14;;;;;;;120.65;28.92;;;;;;;6.62;100.00;101039.63;4985798;28;20377;-78
2021/12/30 10:33:59;;;;;;;89.72;27.33;;;;;;;6.71;100.00;101043.31;4993290;28;20045;-78
2021/12/30 10:36:31;;;;;;;107.97;27.83;;;;;;;6.69;100.00;101021.38;4997259;28;20427;-80
2021/12/30 10:39:32;;;;;;;104.63;28.25;;;;;;;6.79;100.00;101030.25;5012830;28;20074;-80
2021/12/30 10:42:06;;;;;;;87.80;24.42;;;;;;;6.86;100.00;101041.16;4996574;28;20045;-78
2021/12/30 10:44:52;;;;;;;92.80;27.10;;;;;;;6.91;100.00;101038.97;5011494;28;20112;-77
2021/12/30 10:47:20;;;;;;;72.65;21.10;;;;;;;7.00;100.00;101054.13;4992673;28;20042;-78
2021/12/30 10:50:15;;;;;;;93.38;23.92;;;;;;;7.05;100.00;101051.91;4996418;28;20027;-80
2021/12/30 10:52:50;;;;;;;79.38;22.40;;;;;;;7.05;100.00;101041.28;4996078;28;20054;-79
2021/12/30 10:55:16;;;;;;;81.00;21.47;;;;;;;7.08;100.00;101046.31;4995263;28;20746;-80
2021/12/30 10:57:42;;;;;;;82.68;22.65;;;;;;;7.08;100.00;101035.69;5012259;28;20038;-77
2021/12/30 11:00:09;;;;;;;66.88;20.30;;;;;;;7.15;100.00;101031.53;4995776;28;20027;-79
2021/12/30 11:02:36;;;;;;;52.50;16.48;;;;;;;7.17;100.00;101039.38;4991677;28;20101;-77
2021/12/30 11:05:09;;;;;;;51.10;17.88;;;;;;;7.26;100.00;101032.41;4985876;28;20484;-79
2021/12/30 11:07:52;;;;;;;58.15;18.05;;;;;;;7.17;100.00;101003.03;4994919;28;20040;-77